createdAt,value
2023-03-15T00:01:44.729Z,8.36
2023-03-15T00:04:13.009Z,8.38
2023-03-15T00:06:40.736Z,8.42
2023-03-15T00:09:08.606Z,8.45
2023-03-15T00:11:36.050Z,8.28
2023-03-15T00:14:03.669Z,8.11
2023-03-15T00:16:32.315Z,7.99
2023-03-15T00:19:00.913Z,8.01
2023-03-15T00:21:28.710Z,7.90
2023-03-15T00:23:56.439Z,8.13
2023-03-15T00:26:24.049Z,7.97
2023-03-15T00:28:51.520Z,8.20
2023-03-15T00:31:21.617Z,7.98
2023-03-15T00:33:49.812Z,8.02
2023-03-15T00:36:17.184Z,8.06
2023-03-15T00:38:44.521Z,8.03
2023-03-15T00:41:15.454Z,8.12
2023-03-15T00:43:43.898Z,8.14
2023-03-15T00:46:12.257Z,7.96
2023-03-15T00:48:39.830Z,8.01
2023-03-15T00:51:22.025Z,7.94
2023-03-15T00:53:51.204Z,7.82
2023-03-15T00:56:23.661Z,7.80
2023-03-15T00:58:51.907Z,8.05
2023-03-15T01:01:23.512Z,8.06
2023-03-15T01:03:50.832Z,7.83
2023-03-15T01:06:23.941Z,7.63
2023-03-15T01:08:51.636Z,7.70
2023-03-15T01:11:21.830Z,7.50
2023-03-15T01:13:49.138Z,7.58
2023-03-15T01:16:16.410Z,7.60
2023-03-15T01:18:44.439Z,7.83
2023-03-15T01:21:14.612Z,7.65
2023-03-15T01:23:42.418Z,7.61
2023-03-15T01:26:13.534Z,7.62
2023-03-15T01:28:41.074Z,7.65
2023-03-15T01:31:19.678Z,7.49
2023-03-15T01:33:47.163Z,7.54
2023-03-15T01:36:15.375Z,7.50
2023-03-15T01:38:42.925Z,7.55
2023-03-15T01:41:14.718Z,7.43
2023-03-15T01:43:42.672Z,7.31
2023-03-15T01:46:21.260Z,7.26
2023-03-15T01:49:00.853Z,7.46
2023-03-15T01:51:45.345Z,7.26
2023-03-15T01:54:21.788Z,7.19
2023-03-15T01:57:05.093Z,7.27
2023-03-15T01:59:38.843Z,7.43
2023-03-15T02:02:12.789Z,7.04
2023-03-15T02:04:52.258Z,7.02
2023-03-15T02:07:22.277Z,7.12
2023-03-15T02:10:06.840Z,7.02
2023-03-15T02:12:42.490Z,7.02
2023-03-15T02:15:10.696Z,6.99
2023-03-15T02:17:48.574Z,6.99
2023-03-15T02:20:33.849Z,6.98
2023-03-15T02:23:12.106Z,6.91
2023-03-15T02:25:57.946Z,6.98
2023-03-15T02:28:26.593Z,6.98
2023-03-15T02:31:02.512Z,6.99
2023-03-15T02:33:51.760Z,6.90
2023-03-15T02:36:27.688Z,7.08
2023-03-15T02:38:56.510Z,7.00
2023-03-15T02:41:42.695Z,6.96
2023-03-15T02:44:18.482Z,7.05
2023-03-15T02:46:51.254Z,6.95
2023-03-15T02:49:27.777Z,7.06
2023-03-15T02:51:55.426Z,6.73
2023-03-15T02:54:32.353Z,6.75
2023-03-15T02:57:01.302Z,6.65
2023-03-15T02:59:29.348Z,6.59
2023-03-15T03:01:56.753Z,6.41
2023-03-15T03:04:24.144Z,6.25
2023-03-15T03:06:51.577Z,6.34
2023-03-15T03:09:18.920Z,6.21
2023-03-15T03:11:46.347Z,6.35
2023-03-15T03:14:18.156Z,6.33
2023-03-15T03:16:51.635Z,6.15
2023-03-15T03:19:19.154Z,6.25
2023-03-15T03:21:46.497Z,6.26
2023-03-15T03:24:13.828Z,6.13
2023-03-15T03:26:41.172Z,6.24
2023-03-15T03:29:10.052Z,6.36
2023-03-15T03:31:37.385Z,6.49
2023-03-15T03:34:05.125Z,6.03
2023-03-15T03:36:34.431Z,6.23
2023-03-15T03:39:01.744Z,6.27
2023-03-15T03:41:29.004Z,6.24
2023-03-15T03:43:56.283Z,6.02
2023-03-15T03:46:23.604Z,6.04
2023-03-15T03:48:51.036Z,6.14
2023-03-15T03:51:18.429Z,6.19
2023-03-15T03:53:45.881Z,6.03
2023-03-15T03:56:13.184Z,6.21
2023-03-15T03:58:40.494Z,6.18
2023-03-15T04:01:07.802Z,6.26
2023-03-15T04:03:35.145Z,6.43
2023-03-15T04:06:02.507Z,6.41
2023-03-15T04:08:29.880Z,6.67
2023-03-15T04:10:57.803Z,6.86
2023-03-15T04:13:25.744Z,6.78
2023-03-15T04:15:53.672Z,6.84
2023-03-15T04:18:21.721Z,6.86
2023-03-15T04:20:49.400Z,6.73
2023-03-15T04:23:17.358Z,6.74
2023-03-15T04:25:51.887Z,6.95
2023-03-15T04:28:19.655Z,6.97
2023-03-15T04:30:49.093Z,8.37
2023-03-15T04:33:16.682Z,9.14
2023-03-15T04:35:44.557Z,9.67
2023-03-15T04:38:13.813Z,8.40
2023-03-15T04:40:41.157Z,7.94
2023-03-15T04:43:08.938Z,9.39
2023-03-15T04:45:37.228Z,10.67
2023-03-15T04:48:05.119Z,11.13
2023-03-15T04:50:33.092Z,8.68
2023-03-15T04:53:02.320Z,7.95
2023-03-15T04:55:30.144Z,7.62
2023-03-15T04:58:01.084Z,7.07
2023-03-15T05:00:29.459Z,6.86
2023-03-15T05:02:57.324Z,6.85
2023-03-15T05:05:25.184Z,6.94
2023-03-15T05:07:59.650Z,6.85
2023-03-15T05:10:27.258Z,6.67
2023-03-15T05:13:05.950Z,6.78
2023-03-15T05:15:33.336Z,6.77
2023-03-15T05:18:02.913Z,6.56
2023-03-15T05:20:30.259Z,6.52
2023-03-15T05:22:58.085Z,6.66
2023-03-15T05:25:25.352Z,6.68
2023-03-15T05:27:55.473Z,6.56
2023-03-15T05:30:22.934Z,6.57
2023-03-15T05:33:00.599Z,6.53
2023-03-15T05:35:28.122Z,6.36
2023-03-15T05:37:57.927Z,6.34
2023-03-15T05:40:25.957Z,6.41
2023-03-15T05:42:53.318Z,6.47
2023-03-15T05:45:20.736Z,6.13
2023-03-15T05:47:48.092Z,5.99
2023-03-15T05:50:22.933Z,6.20
2023-03-15T05:52:51.803Z,6.27
2023-03-15T05:55:19.151Z,6.07
2023-03-15T05:57:47.121Z,5.72
2023-03-15T06:00:15.206Z,5.88
2023-03-15T06:02:51.677Z,5.87
2023-03-15T06:05:21.542Z,5.77
2023-03-15T06:07:58.241Z,5.81
2023-03-15T06:10:28.803Z,6.01
2023-03-15T06:13:03.468Z,6.29
2023-03-15T06:15:31.729Z,6.42
2023-03-15T06:17:59.173Z,6.84
2023-03-15T06:20:26.772Z,6.71
2023-03-15T06:22:54.265Z,6.55
2023-03-15T06:25:27.415Z,6.69
2023-03-15T06:27:59.856Z,6.75
2023-03-15T06:30:32.942Z,6.71
2023-03-15T06:33:03.042Z,6.81
2023-03-15T06:35:30.467Z,6.81
2023-03-15T06:38:11.862Z,6.58
2023-03-15T06:40:45.647Z,6.59
2023-03-15T06:43:13.124Z,6.77
2023-03-15T06:45:40.490Z,6.56
2023-03-15T06:48:10.949Z,6.62
2023-03-15T06:50:47.634Z,6.77
2023-03-15T06:53:15.477Z,6.74
2023-03-15T06:55:42.889Z,6.72
2023-03-15T06:58:11.235Z,6.86
2023-03-15T07:00:38.533Z,7.01
2023-03-15T07:03:06.093Z,6.51
2023-03-15T07:05:33.943Z,6.65
2023-03-15T07:08:01.318Z,6.90
2023-03-15T07:10:28.846Z,7.11
2023-03-15T07:12:56.223Z,6.99
2023-03-15T07:15:23.590Z,6.84
2023-03-15T07:17:53.574Z,6.72
2023-03-15T07:20:40.673Z,6.80
2023-03-15T07:23:07.924Z,6.82
2023-03-15T07:25:48.272Z,6.82
2023-03-15T07:28:16.008Z,7.05
2023-03-15T07:30:43.309Z,7.25
2023-03-15T07:33:11.275Z,7.16
2023-03-15T07:35:38.616Z,7.13
2023-03-15T07:38:05.977Z,7.12
2023-03-15T07:40:33.488Z,7.24
2023-03-15T07:43:00.905Z,7.41
2023-03-15T07:45:28.609Z,7.34
2023-03-15T07:47:58.370Z,7.07
2023-03-15T07:50:30.650Z,7.12
2023-03-15T07:53:01.072Z,7.20
2023-03-15T07:55:29.607Z,7.28
2023-03-15T07:57:57.503Z,7.35
2023-03-15T08:00:30.723Z,7.56
2023-03-15T08:03:13.243Z,7.34
2023-03-15T08:05:44.091Z,7.32
2023-03-15T08:08:11.835Z,7.23
2023-03-15T08:10:41.236Z,7.40
2023-03-15T08:13:10.910Z,7.38
2023-03-15T08:15:41.089Z,7.17
2023-03-15T08:18:15.845Z,7.51
2023-03-15T08:20:46.085Z,7.72
2023-03-15T08:23:13.489Z,7.64
2023-03-15T08:25:44.571Z,7.50
2023-03-15T08:28:12.437Z,7.37
2023-03-15T08:30:44.495Z,7.41
2023-03-15T08:33:16.194Z,7.63
2023-03-15T08:35:43.544Z,7.51
2023-03-15T08:38:11.149Z,7.71
2023-03-15T08:40:39.830Z,7.94
2023-03-15T08:43:11.991Z,7.89
2023-03-15T08:45:56.639Z,7.76
2023-03-15T08:48:33.411Z,8.05
2023-03-15T08:51:07.084Z,7.98
2023-03-15T08:53:36.322Z,8.17
2023-03-15T08:56:09.926Z,8.17
2023-03-15T08:58:37.408Z,8.29
2023-03-15T09:01:18.451Z,8.46
2023-03-15T09:03:45.892Z,8.59
2023-03-15T09:06:15.320Z,9.00
2023-03-15T09:08:42.611Z,8.77
2023-03-15T09:11:12.065Z,8.91
2023-03-15T09:13:39.671Z,9.20
2023-03-15T09:16:07.975Z,8.92
2023-03-15T09:18:41.081Z,8.72
2023-03-15T09:21:10.404Z,8.80
2023-03-15T09:23:54.350Z,9.15
2023-03-15T09:26:28.781Z,9.30
2023-03-15T09:28:56.490Z,9.20
2023-03-15T09:31:23.999Z,9.51
2023-03-15T09:33:51.419Z,9.70
2023-03-15T09:36:18.804Z,9.57
2023-03-15T09:38:46.313Z,9.13
2023-03-15T09:45:26.793Z,9.77
2023-03-15T09:48:30.871Z,9.91
2023-03-15T09:51:42.705Z,9.91
2023-03-15T09:54:24.933Z,9.76
2023-03-15T09:56:58.009Z,9.98
2023-03-15T09:59:39.459Z,9.82
2023-03-15T10:02:36.731Z,10.79
2023-03-15T10:05:23.053Z,11.32
2023-03-15T10:07:54.511Z,11.38
2023-03-15T10:10:36.239Z,11.23
2023-03-15T10:13:13.168Z,11.63
2023-03-15T10:15:57.787Z,11.29
2023-03-15T10:19:14.868Z,12.21
2023-03-15T10:22:24.439Z,12.41
2023-03-15T10:25:21.535Z,11.86
2023-03-15T10:28:31.334Z,11.34
2023-03-15T10:31:21.594Z,11.79
2023-03-15T10:33:57.538Z,11.85
2023-03-15T10:36:25.876Z,11.39
2023-03-15T10:38:53.511Z,11.12
2023-03-15T10:41:48.479Z,11.14
2023-03-15T10:44:26.357Z,11.20
2023-03-15T10:47:04.648Z,11.48
2023-03-15T10:49:55.496Z,12.03
2023-03-15T10:52:29.930Z,12.19
2023-03-15T10:55:04.325Z,12.10
2023-03-15T10:58:11.953Z,12.57
2023-03-15T11:00:51.166Z,13.44
2023-03-15T11:03:24.556Z,14.38
2023-03-15T11:05:56.351Z,13.86
2023-03-15T11:08:38.741Z,12.74
2023-03-15T11:11:06.966Z,12.66
2023-03-15T11:13:45.018Z,12.95
2023-03-15T11:16:15.339Z,13.36
2023-03-15T11:18:59.649Z,13.35
2023-03-15T11:21:32.178Z,12.86
2023-03-15T11:24:02.038Z,12.55
2023-03-15T11:26:41.735Z,12.56
2023-03-15T11:29:32.718Z,13.23
2023-03-15T11:32:02.204Z,13.52
2023-03-15T11:35:03.526Z,12.81
2023-03-15T11:38:13.017Z,12.21
2023-03-15T11:41:03.113Z,12.29
2023-03-15T11:43:41.133Z,12.43
2023-03-15T11:46:52.933Z,12.44
2023-03-15T11:49:55.089Z,11.94
2023-03-15T11:52:26.614Z,12.16
2023-03-15T11:55:02.328Z,12.14
2023-03-15T11:57:45.718Z,12.29
2023-03-15T12:00:31.419Z,12.30
2023-03-15T12:03:26.656Z,12.07
2023-03-15T12:06:18.423Z,12.36
2023-03-15T12:08:48.545Z,12.21
2023-03-15T12:11:22.481Z,12.19
2023-03-15T12:14:12.179Z,12.22
2023-03-15T12:16:42.855Z,12.37
2023-03-15T12:19:16.106Z,12.40
2023-03-15T12:21:54.397Z,12.39
2023-03-15T12:24:30.467Z,12.22
2023-03-15T12:27:09.393Z,12.00
2023-03-15T12:29:37.311Z,12.14
2023-03-15T12:32:20.759Z,12.21
2023-03-15T12:34:55.103Z,12.16
2023-03-15T12:37:27.579Z,12.16
2023-03-15T12:40:16.891Z,11.74
2023-03-15T12:42:44.233Z,11.78
2023-03-15T12:45:17.121Z,11.73
2023-03-15T12:47:50.775Z,11.93
2023-03-15T12:50:45.714Z,11.87
2023-03-15T12:53:31.910Z,12.07
2023-03-15T12:56:35.014Z,12.17
2023-03-15T12:59:15.601Z,12.26
2023-03-15T13:01:43.405Z,12.20
2023-03-15T13:04:20.084Z,12.43
2023-03-15T13:07:20.135Z,12.53
2023-03-15T13:09:53.586Z,12.61
2023-03-15T13:12:43.476Z,12.50
2023-03-15T13:15:23.114Z,12.52
2023-03-15T13:18:03.237Z,12.11
2023-03-15T13:20:41.740Z,12.24
2023-03-15T13:23:35.526Z,12.61
2023-03-15T13:26:14.894Z,12.69
2023-03-15T13:28:54.697Z,12.79
2023-03-15T13:31:30.692Z,12.94
2023-03-15T13:34:12.302Z,12.90
2023-03-15T13:36:46.480Z,12.64
2023-03-15T13:39:21.404Z,12.75
2023-03-15T13:41:49.580Z,13.01
2023-03-15T13:44:28.473Z,12.80
2023-03-15T13:46:58.726Z,12.64
2023-03-15T13:49:33.906Z,12.83
2023-03-15T13:52:13.220Z,12.79
2023-03-15T13:54:47.190Z,12.88
2023-03-15T13:57:40.953Z,12.82
2023-03-15T14:00:25.373Z,13.06
2023-03-15T14:03:00.614Z,12.91
2023-03-15T14:05:32.250Z,12.93
2023-03-15T14:08:03.903Z,12.81
2023-03-15T14:10:33.039Z,12.86
2023-03-15T14:13:30.564Z,13.01
2023-03-15T14:16:16.796Z,13.14
2023-03-15T14:18:50.874Z,13.07
2023-03-15T14:21:28.650Z,12.99
2023-03-15T14:23:56.078Z,13.29
2023-03-15T14:26:42.116Z,12.86
2023-03-15T14:29:20.723Z,12.88
2023-03-15T14:31:50.698Z,12.79
2023-03-15T14:34:29.987Z,12.61
2023-03-15T14:37:32.590Z,12.37
2023-03-15T14:40:27.291Z,12.52
2023-03-15T14:42:58.130Z,12.25
2023-03-15T14:45:25.559Z,12.20
2023-03-15T14:48:19.333Z,12.23
2023-03-15T14:50:48.624Z,12.25
2023-03-15T14:53:22.443Z,12.25
2023-03-15T14:55:50.356Z,12.10
2023-03-15T14:58:27.177Z,12.07
2023-03-15T15:00:56.734Z,12.19
2023-03-15T15:03:45.898Z,12.19
2023-03-15T15:06:14.963Z,13.86
2023-03-15T15:08:53.163Z,13.39
2023-03-15T15:11:26.985Z,14.77
2023-03-15T15:13:54.368Z,15.28
2023-03-15T15:16:21.873Z,15.65
2023-03-15T15:18:49.441Z,15.71
2023-03-15T15:21:25.784Z,16.32
2023-03-15T15:23:58.752Z,16.67
2023-03-15T15:26:29.731Z,14.01
2023-03-15T15:29:02.852Z,13.21
2023-03-15T15:31:38.976Z,12.55
2023-03-15T15:34:06.441Z,12.29
2023-03-15T15:36:45.333Z,12.24
2023-03-15T15:39:26.962Z,12.07
2023-03-15T15:41:54.122Z,12.22
2023-03-15T15:44:23.654Z,12.05
2023-03-15T15:46:51.113Z,11.85
2023-03-15T15:49:18.440Z,11.72
2023-03-15T15:51:52.189Z,12.95
2023-03-15T15:54:22.859Z,12.31
2023-03-15T15:57:02.417Z,11.84
2023-03-15T15:59:30.367Z,11.68
2023-03-15T16:02:01.601Z,11.57
2023-03-15T16:04:36.152Z,11.23
2023-03-15T16:07:06.195Z,11.21
2023-03-15T16:09:37.836Z,11.19
2023-03-15T16:12:13.823Z,11.23
2023-03-15T16:14:42.227Z,11.14
2023-03-15T16:17:22.795Z,11.18
2023-03-15T16:19:51.644Z,10.88
2023-03-15T16:22:22.143Z,10.91
2023-03-15T16:24:54.964Z,10.85
2023-03-15T16:27:24.361Z,10.83
2023-03-15T16:29:51.893Z,10.76
2023-03-15T16:32:42.776Z,10.92
2023-03-15T16:35:13.616Z,10.94
2023-03-15T16:37:42.278Z,10.84
2023-03-15T16:40:20.453Z,10.87
2023-03-15T16:42:55.263Z,11.18
2023-03-15T16:45:22.710Z,10.94
2023-03-15T16:47:50.290Z,10.78
2023-03-15T16:50:18.931Z,10.93
2023-03-15T16:52:49.473Z,10.69
2023-03-15T16:55:23.562Z,10.67
2023-03-15T16:58:19.305Z,10.66
2023-03-15T17:00:47.190Z,10.72
2023-03-15T17:03:28.468Z,10.72
2023-03-15T17:05:56.438Z,10.72
2023-03-15T17:08:24.087Z,10.70
2023-03-15T17:10:51.770Z,10.84
2023-03-15T17:13:26.622Z,10.88
2023-03-15T17:15:54.034Z,10.84
2023-03-15T17:18:26.414Z,10.74
2023-03-15T17:20:53.767Z,10.71
2023-03-15T17:23:21.487Z,10.67
2023-03-15T17:25:49.150Z,10.74
2023-03-15T17:28:16.901Z,10.70
2023-03-15T17:30:44.362Z,10.66
2023-03-15T17:33:11.805Z,10.64
2023-03-15T17:35:50.443Z,10.70
2023-03-15T17:38:19.998Z,10.73
2023-03-15T17:40:50.473Z,10.87
2023-03-15T17:43:17.932Z,10.74
2023-03-15T17:45:48.294Z,10.60
2023-03-15T17:48:16.750Z,10.56
2023-03-15T17:50:47.186Z,10.62
2023-03-15T17:53:19.766Z,10.62
2023-03-15T17:55:47.647Z,10.56
2023-03-15T17:58:26.494Z,10.51
2023-03-15T18:00:54.443Z,10.41
2023-03-15T18:03:23.322Z,10.34
2023-03-15T18:05:51.349Z,10.38
2023-03-15T18:08:20.627Z,10.41
2023-03-15T18:10:49.970Z,10.32
2023-03-15T18:13:22.066Z,10.37
2023-03-15T18:15:50.836Z,10.28
2023-03-15T18:18:22.905Z,10.27
2023-03-15T18:20:53.371Z,10.30
2023-03-15T18:23:24.077Z,10.25
2023-03-15T18:25:54.416Z,10.13
2023-03-15T18:28:21.926Z,10.28
2023-03-15T18:30:49.401Z,10.27
2023-03-15T18:33:16.798Z,10.28
2023-03-15T18:35:44.706Z,10.26
2023-03-15T18:38:12.112Z,10.28
2023-03-15T18:40:41.982Z,10.36
2023-03-15T18:43:14.535Z,10.28
2023-03-15T18:45:43.168Z,10.21
2023-03-15T18:48:10.727Z,10.23
2023-03-15T18:50:38.248Z,10.26
2023-03-15T18:53:06.343Z,10.35
2023-03-15T18:55:34.502Z,10.49
2023-03-15T18:58:02.846Z,10.38
2023-03-15T19:00:32.757Z,10.49
2023-03-15T19:03:02.599Z,10.41
2023-03-15T19:05:32.570Z,10.38
2023-03-15T19:08:00.087Z,10.38
2023-03-15T19:10:27.802Z,10.38
2023-03-15T19:12:55.157Z,10.41
2023-03-15T19:15:23.690Z,10.37
2023-03-15T19:17:53.684Z,10.32
2023-03-15T19:20:22.853Z,10.37
2023-03-15T19:22:52.026Z,10.31
2023-03-15T19:25:20.157Z,10.22
2023-03-15T19:27:57.449Z,10.11
2023-03-15T19:30:27.891Z,10.29
2023-03-15T19:32:59.702Z,10.15
2023-03-15T19:35:32.530Z,10.15
2023-03-15T19:38:04.554Z,10.11
2023-03-15T19:40:35.715Z,9.99
2023-03-15T19:43:03.041Z,9.94
2023-03-15T19:45:30.453Z,9.93
2023-03-15T19:47:57.840Z,9.98
2023-03-15T19:50:25.316Z,10.08
2023-03-15T19:52:52.615Z,9.84
2023-03-15T19:55:20.775Z,9.74
2023-03-15T19:57:50.176Z,9.69
2023-03-15T20:00:19.718Z,9.80
2023-03-15T20:02:47.798Z,9.73
2023-03-15T20:05:21.121Z,9.64
2023-03-15T20:07:49.504Z,9.56
2023-03-15T20:10:18.139Z,9.64
2023-03-15T20:12:46.764Z,9.61
2023-03-15T20:15:19.206Z,9.61
2023-03-15T20:17:46.754Z,9.58
2023-03-15T20:20:17.184Z,9.67
2023-03-15T20:22:46.290Z,9.61
2023-03-15T20:25:19.515Z,9.66
2023-03-15T20:28:13.440Z,9.54
2023-03-15T20:30:43.268Z,9.54
2023-03-15T20:33:11.508Z,9.69
2023-03-15T20:35:39.094Z,9.67
2023-03-15T20:38:06.416Z,9.51
2023-03-15T20:40:37.338Z,9.45
2023-03-15T20:43:06.775Z,9.46
2023-03-15T20:45:34.922Z,9.65
2023-03-15T20:48:07.015Z,9.74
2023-03-15T20:50:37.866Z,9.71
2023-03-15T20:53:06.330Z,9.64
2023-03-15T20:55:35.332Z,9.65
2023-03-15T20:58:04.624Z,9.66
2023-03-15T21:00:33.457Z,9.72
2023-03-15T21:03:05.789Z,9.74
2023-03-15T21:05:36.110Z,9.54
2023-03-15T21:08:09.234Z,9.51
2023-03-15T21:10:37.693Z,9.50
2023-03-15T21:13:05.096Z,9.37
2023-03-15T21:15:48.258Z,9.48
2023-03-15T21:18:17.246Z,9.66
2023-03-15T21:20:46.436Z,9.71
2023-03-15T21:23:16.574Z,9.73
2023-03-15T21:25:43.834Z,9.68
2023-03-15T21:28:11.143Z,9.87
2023-03-15T21:30:41.341Z,9.64
2023-03-15T21:33:11.727Z,9.72
2023-03-15T21:35:39.235Z,9.57
2023-03-15T21:38:06.566Z,9.62
2023-03-15T21:40:34.036Z,9.69
2023-03-15T21:43:01.457Z,9.61
2023-03-15T21:45:29.095Z,9.41
2023-03-15T21:47:56.477Z,9.57
2023-03-15T21:50:24.095Z,9.55
2023-03-15T21:52:54.983Z,9.47
2023-03-15T21:55:22.608Z,9.55
2023-03-15T21:57:50.023Z,9.45
2023-03-15T22:00:18.024Z,9.50
2023-03-15T22:02:51.065Z,9.37
2023-03-15T22:05:19.065Z,9.27
2023-03-15T22:07:46.359Z,9.24
2023-03-15T22:10:13.920Z,9.37
2023-03-15T22:12:47.600Z,9.24
2023-03-15T22:15:14.936Z,9.27
2023-03-15T22:17:52.590Z,9.26
2023-03-15T22:20:54.592Z,9.28
2023-03-15T22:23:25.105Z,9.21
2023-03-15T22:25:52.947Z,9.20
2023-03-15T22:28:21.098Z,9.24
2023-03-15T22:30:49.863Z,9.31
2023-03-15T22:33:18.409Z,9.19
2023-03-15T22:35:45.957Z,9.17
2023-03-15T22:38:13.429Z,9.44
2023-03-15T22:40:41.175Z,9.39
2023-03-15T22:43:09.143Z,9.26
2023-03-15T22:45:37.362Z,9.20
2023-03-15T22:48:07.152Z,9.29
2023-03-15T22:50:34.701Z,9.23
2023-03-15T22:53:08.479Z,9.20
2023-03-15T22:55:36.498Z,9.31
2023-03-15T22:58:03.835Z,9.08
2023-03-15T23:00:32.017Z,9.18
2023-03-15T23:03:05.626Z,9.08
2023-03-15T23:05:35.168Z,9.07
2023-03-15T23:08:17.787Z,9.08
2023-03-15T23:10:45.408Z,9.11
2023-03-15T23:13:12.694Z,9.07
2023-03-15T23:15:41.787Z,9.10
2023-03-15T23:18:09.514Z,9.05
2023-03-15T23:20:36.984Z,9.02
2023-03-15T23:23:04.429Z,9.03
2023-03-15T23:25:32.345Z,8.98
2023-03-15T23:27:59.638Z,8.90
2023-03-15T23:30:27.190Z,8.79
2023-03-15T23:32:54.829Z,8.74
2023-03-15T23:35:22.332Z,8.76
2023-03-15T23:37:49.763Z,8.82
2023-03-15T23:40:17.217Z,8.70
2023-03-15T23:42:45.091Z,8.72
2023-03-15T23:45:14.727Z,8.69
2023-03-15T23:47:42.511Z,8.63
2023-03-15T23:50:10.747Z,8.60
2023-03-15T23:52:37.966Z,8.67
2023-03-15T23:55:14.326Z,8.74
2023-03-15T23:57:41.441Z,8.68
